createdAt,value
2019-05-21T00:00:47.556Z,16.77
2019-05-21T00:03:16.336Z,18.23
2019-05-21T00:05:45.074Z,16.90
2019-05-21T00:08:33.013Z,16.80
2019-05-21T00:11:01.745Z,18.00
2019-05-21T00:13:31.973Z,17.60
2019-05-21T00:16:00.676Z,17.80
2019-05-21T00:18:29.381Z,17.47
2019-05-21T00:20:58.020Z,17.53
2019-05-21T00:23:26.710Z,16.73
2019-05-21T00:25:55.443Z,17.23
2019-05-21T00:28:35.900Z,17.13
2019-05-21T00:31:42.777Z,17.93
2019-05-21T00:34:48.334Z,16.23
2019-05-21T00:37:53.126Z,16.23
2019-05-21T00:40:58.246Z,17.37
2019-05-21T00:43:42.145Z,16.07
2019-05-21T00:46:12.254Z,16.00
2019-05-21T00:48:40.878Z,16.60
2019-05-21T00:51:28.860Z,17.43
2019-05-21T00:53:57.552Z,16.90
2019-05-21T00:56:26.197Z,16.80
2019-05-21T00:59:15.665Z,16.60
2019-05-21T01:01:44.608Z,16.53
2019-05-21T01:04:14.833Z,16.20
2019-05-21T01:06:45.010Z,17.03
2019-05-21T01:09:13.697Z,17.03
2019-05-21T01:11:42.405Z,16.97
2019-05-21T01:14:11.154Z,16.93
2019-05-21T01:16:39.791Z,16.13
2019-05-21T01:19:08.537Z,16.50
2019-05-21T01:21:37.241Z,16.33
2019-05-21T01:24:06.203Z,16.87
2019-05-21T01:26:34.768Z,16.73
2019-05-21T01:29:24.240Z,16.67
2019-05-21T01:31:52.809Z,16.83
2019-05-21T01:34:21.676Z,17.57
2019-05-21T01:36:50.355Z,16.97
2019-05-21T01:39:38.343Z,17.07
2019-05-21T01:42:06.976Z,15.77
2019-05-21T01:44:37.309Z,15.83
2019-05-21T01:47:05.938Z,15.77
2019-05-21T01:49:34.557Z,16.13
2019-05-21T01:52:04.657Z,15.47
2019-05-21T01:54:34.840Z,14.63
2019-05-21T01:57:03.744Z,15.00
2019-05-21T01:59:32.391Z,15.27
2019-05-21T02:02:01.068Z,15.33
2019-05-21T02:04:30.092Z,14.67
2019-05-21T02:06:58.783Z,14.33
2019-05-21T02:09:27.420Z,15.60
2019-05-21T02:11:56.118Z,14.70
2019-05-21T02:14:44.090Z,14.83
2019-05-21T02:17:12.710Z,14.00
2019-05-21T02:19:41.341Z,14.43
2019-05-21T02:22:10.025Z,13.47
2019-05-21T02:24:38.657Z,14.30
2019-05-21T02:27:07.413Z,13.83
2019-05-21T02:29:36.025Z,14.00
2019-05-21T02:32:04.638Z,14.03
2019-05-21T02:34:33.205Z,13.33
2019-05-21T02:37:05.855Z,12.23
2019-05-21T02:39:32.185Z,13.57
2019-05-21T02:42:00.936Z,12.10
2019-05-21T02:44:29.570Z,12.30
2019-05-21T02:46:58.193Z,13.70
2019-05-21T02:49:26.893Z,12.60
2019-05-21T02:51:55.733Z,12.40
2019-05-21T02:54:39.345Z,11.73
2019-05-21T02:56:54.716Z,12.70
2019-05-21T02:59:24.890Z,11.97
2019-05-21T03:01:55.287Z,11.90
2019-05-21T03:04:24.016Z,12.33
2019-05-21T03:06:54.415Z,11.47
2019-05-21T03:09:42.386Z,12.53
2019-05-21T03:12:11.065Z,12.07
2019-05-21T03:14:39.696Z,11.67
2019-05-21T03:17:08.458Z,11.60
2019-05-21T03:19:37.094Z,11.27
2019-05-21T03:22:05.975Z,11.87
2019-05-21T03:24:34.683Z,11.70
2019-05-21T03:27:03.441Z,12.17
2019-05-21T03:29:32.137Z,10.83
2019-05-21T03:32:00.890Z,12.00
2019-05-21T03:34:48.867Z,12.50
2019-05-21T03:37:17.469Z,11.60
2019-05-21T03:39:46.044Z,12.70
2019-05-21T03:42:14.797Z,12.23
2019-05-21T03:45:07.286Z,12.33
2019-05-21T03:47:33.209Z,12.37
2019-05-21T03:50:01.934Z,12.03
2019-05-21T03:52:30.693Z,12.10
2019-05-21T03:55:02.859Z,11.97
2019-05-21T03:57:29.681Z,11.00
2019-05-21T03:59:58.435Z,10.50
2019-05-21T04:02:27.074Z,10.17
2019-05-21T04:04:56.025Z,12.27
2019-05-21T04:07:24.658Z,10.47
2019-05-21T04:09:53.275Z,10.83
2019-05-21T04:12:21.840Z,10.20
2019-05-21T04:14:52.265Z,11.90
2019-05-21T04:17:26.708Z,9.63
2019-05-21T04:19:55.397Z,11.07
2019-05-21T04:22:24.035Z,9.97
2019-05-21T04:24:52.646Z,9.77
2019-05-21T04:27:21.278Z,10.70
2019-05-21T04:29:49.959Z,10.13
2019-05-21T04:32:18.593Z,9.53
2019-05-21T04:34:47.209Z,10.47
2019-05-21T04:37:17.436Z,9.37
2019-05-21T04:39:46.160Z,9.50
2019-05-21T04:42:38.000Z,10.10
2019-05-21T04:45:08.672Z,10.63
2019-05-21T04:47:38.854Z,10.60
2019-05-21T04:50:07.796Z,10.00
2019-05-21T04:52:55.708Z,10.37
2019-05-21T04:55:25.849Z,10.13
2019-05-21T04:57:54.561Z,10.70
2019-05-21T05:00:42.600Z,9.93
2019-05-21T05:03:11.258Z,11.23
2019-05-21T05:05:39.952Z,11.00
2019-05-21T05:08:08.650Z,9.77
2019-05-21T05:10:37.401Z,10.43
2019-05-21T05:13:06.033Z,11.03
2019-05-21T05:15:34.717Z,11.40
2019-05-21T05:18:03.353Z,10.43
2019-05-21T05:20:51.388Z,11.73
2019-05-21T05:23:20.025Z,11.57
2019-05-21T05:25:48.773Z,11.53
2019-05-21T05:28:17.333Z,13.13
2019-05-21T05:31:05.367Z,11.73
2019-05-21T05:33:33.934Z,12.17
2019-05-21T05:36:02.610Z,12.07
2019-05-21T05:38:31.319Z,13.77
2019-05-21T05:40:59.946Z,13.40
2019-05-21T05:43:28.650Z,13.27
2019-05-21T05:45:57.341Z,12.67
2019-05-21T05:48:26.649Z,13.00
2019-05-21T05:50:57.011Z,12.77
2019-05-21T05:53:25.660Z,12.53
2019-05-21T05:55:54.532Z,12.90
2019-05-21T05:58:23.169Z,11.37
2019-05-21T06:00:52.780Z,12.60
2019-05-21T06:03:21.432Z,12.80
2019-05-21T06:05:54.186Z,12.80
2019-05-21T06:08:22.968Z,12.97
2019-05-21T06:10:53.060Z,13.43
2019-05-21T06:13:21.636Z,13.93
2019-05-21T06:15:54.233Z,12.83
2019-05-21T06:18:23.151Z,12.33
2019-05-21T06:20:51.940Z,12.60
2019-05-21T06:23:20.698Z,12.73
2019-05-21T06:25:49.922Z,12.87
2019-05-21T06:28:20.714Z,13.57
2019-05-21T06:30:49.290Z,12.60
2019-05-21T06:33:37.496Z,13.10
2019-05-21T06:36:10.057Z,13.40
2019-05-21T06:38:58.177Z,13.80
2019-05-21T06:41:27.022Z,13.17
2019-05-21T06:44:15.104Z,12.70
2019-05-21T06:46:44.745Z,13.20
2019-05-21T06:49:13.742Z,12.60
2019-05-21T06:51:42.384Z,13.70
2019-05-21T06:54:11.138Z,13.17
2019-05-21T06:56:39.776Z,12.47
2019-05-21T06:59:08.530Z,13.20
2019-05-21T07:01:37.241Z,12.10
2019-05-21T07:04:06.018Z,10.83
2019-05-21T07:06:54.010Z,11.93
2019-05-21T07:09:22.686Z,11.67
2019-05-21T07:11:51.323Z,11.43
2019-05-21T07:14:20.073Z,11.67
2019-05-21T07:17:10.255Z,12.47
2019-05-21T07:19:38.939Z,11.37
2019-05-21T07:22:12.758Z,11.77
2019-05-21T07:24:40.314Z,10.17
2019-05-21T07:27:09.039Z,10.07
2019-05-21T07:29:37.660Z,10.13
2019-05-21T07:32:06.369Z,9.80
2019-05-21T07:34:36.599Z,8.80
2019-05-21T07:37:05.358Z,9.13
2019-05-21T07:39:33.991Z,9.33
2019-05-21T07:42:03.321Z,7.97
2019-05-21T07:44:31.927Z,8.73
2019-05-21T07:47:00.667Z,8.50
2019-05-21T07:49:29.308Z,7.80
2019-05-21T07:51:57.954Z,7.27
2019-05-21T07:54:28.131Z,7.03
2019-05-21T07:56:57.110Z,7.57
2019-05-21T07:59:25.850Z,7.70
2019-05-21T08:01:54.499Z,7.30
2019-05-21T08:04:23.157Z,6.07
2019-05-21T08:06:54.004Z,6.50
2019-05-21T08:09:22.761Z,6.77
2019-05-21T08:11:51.510Z,7.33
2019-05-21T08:14:20.193Z,7.13
2019-05-21T08:16:50.299Z,7.37
2019-05-21T08:19:18.990Z,6.47
2019-05-21T08:21:47.702Z,6.13
2019-05-21T08:24:16.370Z,6.70
2019-05-21T08:26:45.083Z,7.00
2019-05-21T08:29:13.745Z,6.90
2019-05-21T08:31:42.452Z,5.13
2019-05-21T08:34:11.969Z,5.33
2019-05-21T08:36:40.540Z,4.87
2019-05-21T08:39:29.465Z,4.90
2019-05-21T08:42:17.466Z,4.87
2019-05-21T08:45:07.224Z,5.40
2019-05-21T08:47:37.865Z,4.60
2019-05-21T08:50:09.161Z,4.20
2019-05-21T08:52:38.060Z,3.60
2019-05-21T08:55:18.003Z,3.80
2019-05-21T08:58:06.332Z,4.00
2019-05-21T09:00:32.116Z,4.40
2019-05-21T09:03:01.095Z,4.43
2019-05-21T09:05:29.776Z,4.40
2019-05-21T09:07:59.904Z,4.20
2019-05-21T09:10:28.795Z,3.80
2019-05-21T09:12:58.988Z,4.00
2019-05-21T09:15:28.910Z,4.17
2019-05-21T09:17:59.993Z,3.83
2019-05-21T09:20:48.004Z,3.80
2019-05-21T09:23:16.723Z,3.80
2019-05-21T09:25:47.632Z,3.37
2019-05-21T09:28:15.734Z,3.90
2019-05-21T09:30:44.338Z,3.60
2019-05-21T09:33:13.498Z,3.80
2019-05-21T09:35:42.351Z,4.10
2019-05-21T09:38:11.055Z,3.47
2019-05-21T09:40:39.965Z,3.80
2019-05-21T09:43:08.634Z,3.63
2019-05-21T09:45:37.371Z,3.00
2019-05-21T09:48:06.347Z,3.50
2019-05-21T09:50:58.605Z,3.70
2019-05-21T09:53:27.117Z,3.40
2019-05-21T09:55:59.349Z,3.17
2019-05-21T09:58:32.664Z,3.33
2019-05-21T10:01:18.273Z,3.57
2019-05-21T10:03:48.616Z,3.50
2019-05-21T10:06:19.837Z,3.30
2019-05-21T10:08:58.797Z,3.50
2019-05-21T10:11:27.798Z,3.07
2019-05-21T10:14:15.769Z,2.70
2019-05-21T10:16:44.444Z,2.80
2019-05-21T10:19:13.158Z,2.90
2019-05-21T10:21:41.902Z,2.83
2019-05-21T10:24:10.632Z,2.50
2019-05-21T10:26:39.290Z,2.40
2019-05-21T10:29:08.001Z,2.73
2019-05-21T10:31:36.698Z,2.90
2019-05-21T10:34:26.861Z,2.87
2019-05-21T10:36:57.371Z,2.73
2019-05-21T10:39:26.466Z,2.63
2019-05-21T10:41:55.890Z,2.60
2019-05-21T10:44:24.819Z,2.33
2019-05-21T10:46:57.524Z,1.77
2019-05-21T10:49:26.105Z,2.40
2019-05-21T10:51:54.721Z,2.50
2019-05-21T10:54:42.716Z,1.97
2019-05-21T10:57:11.585Z,1.97
2019-05-21T10:59:40.394Z,2.10
2019-05-21T11:02:10.722Z,2.50
2019-05-21T11:04:41.033Z,2.83
2019-05-21T11:07:11.561Z,2.97
2019-05-21T11:09:42.691Z,2.20
2019-05-21T11:12:14.400Z,2.50
2019-05-21T11:14:47.112Z,2.80
2019-05-21T11:17:20.011Z,2.90
2019-05-21T11:19:48.748Z,2.57
2019-05-21T11:22:19.404Z,2.83
2019-05-21T11:24:48.844Z,2.93
2019-05-21T11:27:20.234Z,2.70
2019-05-21T11:30:10.525Z,2.50
2019-05-21T11:32:41.246Z,2.50
2019-05-21T11:35:20.421Z,2.97
2019-05-21T11:37:49.568Z,2.20
2019-05-21T11:40:22.018Z,2.20
2019-05-21T11:42:54.173Z,2.20
2019-05-21T11:45:32.185Z,2.40
2019-05-21T11:47:58.057Z,4.40
2019-05-21T11:50:26.982Z,2.50
2019-05-21T11:52:57.342Z,2.63
2019-05-21T11:55:28.265Z,3.60
2019-05-21T11:58:04.984Z,2.23
2019-05-21T12:00:55.328Z,1.77
2019-05-21T12:03:28.099Z,1.97
2019-05-21T12:05:57.184Z,2.10
2019-05-21T12:08:25.896Z,2.70
2019-05-21T12:10:54.663Z,2.57
2019-05-21T12:13:23.335Z,2.47
2019-05-21T12:15:52.078Z,2.00
2019-05-21T12:18:40.081Z,2.20
2019-05-21T12:21:09.003Z,2.50
2019-05-21T12:23:57.023Z,2.67
2019-05-21T12:26:25.729Z,2.50
2019-05-21T12:28:54.376Z,2.57
2019-05-21T12:31:23.131Z,2.77
2019-05-21T12:33:51.693Z,2.70
2019-05-21T12:36:20.387Z,2.83
2019-05-21T12:38:49.209Z,2.80
2019-05-21T12:41:19.413Z,2.80
2019-05-21T12:43:48.255Z,3.07
2019-05-21T12:46:36.331Z,3.00
2019-05-21T12:49:06.573Z,3.20
2019-05-21T12:51:38.437Z,4.00
2019-05-21T12:54:27.955Z,3.50
2019-05-21T12:56:58.217Z,2.93
2019-05-21T12:59:26.852Z,3.23
2019-05-21T13:01:55.620Z,3.77
2019-05-21T13:04:27.032Z,3.30
2019-05-21T13:06:55.897Z,3.63
2019-05-21T13:09:46.886Z,5.17
2019-05-21T13:12:17.205Z,5.20
2019-05-21T13:14:47.456Z,5.10
2019-05-21T13:17:38.067Z,3.80
2019-05-21T13:20:26.738Z,3.50
2019-05-21T13:22:55.422Z,4.17
2019-05-21T13:25:24.493Z,3.27
2019-05-21T13:28:12.524Z,3.00
2019-05-21T13:30:41.260Z,3.27
2019-05-21T13:33:11.408Z,3.37
2019-05-21T13:35:40.148Z,3.30
2019-05-21T13:38:13.154Z,3.23
2019-05-21T13:40:41.347Z,3.40
2019-05-21T13:43:10.105Z,2.73
2019-05-21T13:45:38.823Z,3.33
2019-05-21T13:48:10.835Z,3.13
2019-05-21T13:50:44.489Z,3.80
2019-05-21T13:53:32.756Z,3.57
2019-05-21T13:56:01.404Z,5.30
2019-05-21T13:58:31.618Z,9.27
2019-05-21T14:01:02.693Z,7.97
2019-05-21T14:03:31.364Z,6.95
2019-05-21T14:06:00.071Z,5.50
2019-05-21T14:08:28.839Z,4.37
2019-05-21T14:10:57.645Z,4.10
2019-05-21T14:13:26.391Z,3.73
2019-05-21T14:15:57.940Z,3.03
2019-05-21T14:18:30.471Z,3.30
2019-05-21T14:21:03.029Z,3.07
2019-05-21T14:23:33.788Z,3.30
2019-05-21T14:26:02.602Z,3.23
2019-05-21T14:28:34.314Z,3.93
2019-05-21T14:31:01.579Z,3.40
2019-05-21T14:33:30.180Z,3.47
2019-05-21T14:35:58.810Z,3.63
2019-05-21T14:38:27.486Z,3.53
2019-05-21T14:40:56.191Z,3.67
2019-05-21T14:43:25.062Z,3.03
2019-05-21T14:45:53.699Z,2.97
2019-05-21T14:48:41.713Z,3.40
2019-05-21T14:51:13.406Z,3.30
2019-05-21T14:53:40.682Z,3.30
2019-05-21T14:56:28.653Z,2.57
2019-05-21T14:59:16.657Z,2.77
2019-05-21T15:01:47.013Z,3.03
2019-05-21T15:04:15.704Z,3.07
2019-05-21T15:06:44.522Z,3.50
2019-05-21T15:09:13.269Z,2.93
2019-05-21T15:11:41.858Z,3.17
2019-05-21T15:14:10.524Z,2.90
2019-05-21T15:16:39.082Z,3.33
2019-05-21T15:19:07.760Z,3.43
2019-05-21T15:21:39.501Z,3.50
2019-05-21T15:24:08.394Z,3.43
2019-05-21T15:26:37.145Z,3.70
2019-05-21T15:29:06.026Z,3.37
2019-05-21T15:31:34.862Z,4.20
2019-05-21T15:34:03.674Z,4.27
2019-05-21T15:36:32.372Z,3.77
2019-05-21T15:39:01.900Z,3.67
2019-05-21T15:41:30.824Z,4.90
2019-05-21T15:43:59.576Z,3.80
2019-05-21T15:46:28.335Z,3.80
2019-05-21T15:48:56.956Z,3.80
2019-05-21T15:51:25.585Z,3.97
2019-05-21T15:53:54.365Z,4.50
2019-05-21T15:56:22.931Z,4.00
2019-05-21T15:58:52.439Z,4.13
2019-05-21T16:01:22.569Z,3.80
2019-05-21T16:03:51.331Z,3.63
2019-05-21T16:06:20.024Z,4.50
2019-05-21T16:08:48.765Z,4.23
2019-05-21T16:11:27.880Z,4.43
2019-05-21T16:13:47.771Z,4.43
2019-05-21T16:16:16.382Z,4.37
2019-05-21T16:18:45.013Z,5.07
2019-05-21T16:21:13.713Z,6.10
2019-05-21T16:23:42.352Z,4.87
2019-05-21T16:26:11.265Z,4.90
2019-05-21T16:28:41.437Z,5.50
2019-05-21T16:31:10.124Z,4.67
2019-05-21T16:33:40.302Z,5.10
2019-05-21T16:36:09.051Z,5.10
2019-05-21T16:38:39.224Z,4.73
2019-05-21T16:41:09.371Z,4.87
2019-05-21T16:43:38.074Z,5.67
2019-05-21T16:46:10.173Z,5.60
2019-05-21T16:48:56.614Z,6.13
2019-05-21T16:51:25.372Z,5.87
2019-05-21T16:53:54.061Z,5.57
2019-05-21T16:56:42.076Z,5.47
2019-05-21T16:59:10.778Z,6.23
2019-05-21T17:01:39.458Z,5.60
2019-05-21T17:04:08.670Z,5.57
2019-05-21T17:06:37.307Z,5.60
2019-05-21T17:09:08.185Z,6.10
2019-05-21T17:11:36.916Z,6.27
2019-05-21T17:14:24.883Z,5.83
2019-05-21T17:16:53.489Z,6.33
2019-05-21T17:19:22.121Z,6.17
2019-05-21T17:21:50.851Z,6.67
2019-05-21T17:24:19.508Z,5.80
2019-05-21T17:26:48.125Z,6.63
2019-05-21T17:29:16.836Z,6.60
2019-05-21T17:31:45.593Z,6.80
2019-05-21T17:34:14.294Z,7.13
2019-05-21T17:36:42.920Z,7.30
2019-05-21T17:39:11.622Z,6.50
2019-05-21T17:41:40.429Z,6.37
2019-05-21T17:44:09.067Z,7.07
2019-05-21T17:46:57.097Z,6.27
2019-05-21T17:49:45.064Z,6.57
2019-05-21T17:52:13.764Z,7.47
2019-05-21T17:54:55.502Z,6.60
2019-05-21T17:57:12.980Z,6.23
2019-05-21T17:59:41.528Z,6.77
2019-05-21T18:02:11.892Z,7.40
2019-05-21T18:04:40.692Z,7.10
2019-05-21T18:07:10.540Z,7.27
2019-05-21T18:09:40.006Z,7.00
2019-05-21T18:12:10.037Z,6.77
2019-05-21T18:14:38.841Z,6.27
2019-05-21T18:17:09.442Z,6.80
2019-05-21T18:19:38.241Z,7.00
2019-05-21T18:22:08.573Z,8.13
2019-05-21T18:24:37.283Z,7.93
2019-05-21T18:27:06.013Z,8.00
2019-05-21T18:29:34.630Z,7.57
2019-05-21T18:32:03.260Z,7.47
2019-05-21T18:34:31.957Z,8.17
2019-05-21T18:37:00.687Z,7.47
2019-05-21T18:39:29.775Z,8.60
2019-05-21T18:42:22.338Z,9.40
2019-05-21T18:44:48.032Z,10.83
2019-05-21T18:47:16.842Z,10.67
2019-05-21T18:49:45.855Z,10.00
2019-05-21T18:52:14.412Z,9.97
2019-05-21T18:55:02.460Z,10.77
2019-05-21T18:57:32.746Z,10.90
2019-05-21T19:00:01.393Z,10.30
2019-05-21T19:02:30.080Z,11.13
2019-05-21T19:04:58.892Z,10.53
2019-05-21T19:07:27.514Z,10.67
2019-05-21T19:09:56.179Z,11.93
2019-05-21T19:12:37.588Z,11.93
2019-05-21T19:14:55.745Z,13.57
2019-05-21T19:17:35.219Z,13.03
2019-05-21T19:19:54.797Z,13.63
2019-05-21T19:22:27.297Z,13.37
2019-05-21T19:24:54.053Z,12.93
2019-05-21T19:27:22.710Z,13.67
2019-05-21T19:29:51.403Z,12.00
2019-05-21T19:32:42.479Z,12.90
2019-05-21T19:35:11.890Z,11.87
2019-05-21T19:37:40.556Z,12.57
2019-05-21T19:40:10.224Z,12.77
2019-05-21T19:42:53.880Z,14.63
2019-05-21T19:45:09.454Z,14.57
2019-05-21T19:47:38.226Z,14.20
2019-05-21T19:50:10.989Z,15.47
2019-05-21T19:52:39.648Z,15.13
2019-05-21T19:55:08.593Z,17.30
2019-05-21T19:57:38.376Z,15.97
2019-05-21T20:00:09.100Z,16.10
2019-05-21T20:02:37.810Z,16.97
2019-05-21T20:05:07.928Z,16.10
2019-05-21T20:07:36.796Z,17.33
2019-05-21T20:10:07.236Z,16.27
2019-05-21T20:12:48.434Z,16.90
2019-05-21T20:15:17.397Z,16.00
2019-05-21T20:17:50.833Z,17.87
2019-05-21T20:20:20.721Z,17.30
2019-05-21T20:22:50.988Z,17.30
2019-05-21T20:25:20.352Z,16.90
2019-05-21T20:27:48.988Z,17.40
2019-05-21T20:30:19.633Z,16.67
2019-05-21T20:32:49.317Z,17.10
2019-05-21T20:35:18.634Z,15.70
2019-05-21T20:37:48.979Z,16.93
2019-05-21T20:40:18.603Z,18.73
2019-05-21T20:42:47.526Z,18.30
2019-05-21T20:45:18.017Z,19.17
2019-05-21T20:50:38.350Z,20.07
2019-05-21T20:55:57.198Z,18.53
2019-05-21T20:58:27.365Z,21.43
2019-05-21T21:00:59.164Z,21.70
2019-05-21T21:03:28.273Z,21.40
2019-05-21T21:05:57.231Z,21.20
2019-05-21T21:08:50.864Z,22.37
2019-05-21T21:14:15.377Z,21.93
2019-05-21T21:16:32.237Z,22.87
2019-05-21T21:19:00.892Z,20.53
2019-05-21T21:21:29.649Z,21.27
2019-05-21T21:23:58.314Z,21.83
2019-05-21T21:26:27.033Z,22.17
2019-05-21T21:28:55.871Z,23.77
2019-05-21T21:31:24.820Z,24.50
2019-05-21T21:33:53.393Z,25.13
2019-05-21T21:36:22.069Z,26.03
2019-05-21T21:38:50.804Z,28.47
2019-05-21T21:41:20.125Z,28.30
2019-05-21T21:43:49.332Z,26.90
2019-05-21T21:46:18.081Z,27.50
2019-05-21T21:48:47.081Z,26.40
2019-05-21T21:51:15.692Z,26.17
2019-05-21T21:53:44.399Z,26.67
2019-05-21T21:56:13.095Z,26.83
2019-05-21T21:58:41.797Z,26.43
2019-05-21T22:01:27.223Z,26.23
2019-05-21T22:03:58.460Z,25.47
2019-05-21T22:06:30.125Z,24.50
2019-05-21T22:08:59.754Z,23.93
2019-05-21T22:11:29.061Z,27.03
2019-05-21T22:13:57.973Z,26.30
2019-05-21T22:16:26.653Z,26.80
2019-05-21T22:18:55.217Z,25.83
2019-05-21T22:21:24.170Z,26.07
2019-05-21T22:23:53.173Z,25.77
2019-05-21T22:26:22.308Z,25.33
2019-05-21T22:28:51.450Z,25.63
2019-05-21T22:31:20.284Z,24.70
2019-05-21T22:33:49.129Z,24.70
2019-05-21T22:36:17.842Z,25.47
2019-05-21T22:38:46.586Z,25.20
2019-05-21T22:41:15.292Z,26.40
2019-05-21T22:43:44.540Z,25.87
2019-05-21T22:46:13.248Z,27.07
2019-05-21T22:48:41.938Z,28.63
2019-05-21T22:51:10.845Z,28.23
2019-05-21T22:53:39.601Z,27.63
2019-05-21T22:56:08.305Z,27.83
2019-05-21T22:58:38.709Z,28.23
2019-05-21T23:01:09.084Z,27.13
2019-05-21T23:03:37.719Z,27.07
2019-05-21T23:06:06.396Z,26.60
2019-05-21T23:08:35.333Z,26.13
2019-05-21T23:11:04.014Z,26.83
2019-05-21T23:13:32.722Z,27.27
2019-05-21T23:16:01.850Z,27.23
2019-05-21T23:18:49.828Z,25.73
2019-05-21T23:21:19.525Z,26.73
2019-05-21T23:23:50.024Z,26.70
2019-05-21T23:26:20.162Z,26.00
2019-05-21T23:28:49.217Z,26.50
2019-05-21T23:31:19.085Z,26.27
2019-05-21T23:33:49.967Z,27.33
2019-05-21T23:36:18.786Z,27.10
2019-05-21T23:39:08.628Z,26.57
2019-05-21T23:41:37.977Z,26.53
2019-05-21T23:44:08.922Z,27.20
2019-05-21T23:46:37.534Z,26.43
2019-05-21T23:49:07.712Z,26.03
2019-05-21T23:51:36.389Z,26.97
2019-05-21T23:54:06.066Z,26.70
2019-05-21T23:56:35.216Z,26.17
2019-05-21T23:59:05.597Z,27.53
